createdAt,value
2019-01-28T00:00:15.406Z,90.3
2019-01-28T00:01:15.453Z,90.4
2019-01-28T00:02:15.727Z,90.6
2019-01-28T00:03:15.987Z,90.8
2019-01-28T00:04:15.246Z,90.7
2019-01-28T00:05:15.519Z,90.7
2019-01-28T00:06:15.784Z,90.7
2019-01-28T00:07:16.039Z,90.8
2019-01-28T00:08:15.303Z,90.8
2019-01-28T00:09:15.569Z,90.7
2019-01-28T00:10:15.850Z,90.5
2019-01-28T00:11:15.876Z,90.5
2019-01-28T00:12:16.143Z,90.6
2019-01-28T00:13:15.409Z,90.5
2019-01-28T00:14:15.676Z,91.0
2019-01-28T00:15:15.945Z,90.7
2019-01-28T00:16:15.206Z,90.8
2019-01-28T00:17:15.473Z,90.8
2019-01-28T00:18:15.746Z,91.0
2019-01-28T00:19:16.022Z,90.9
2019-01-28T00:20:15.294Z,91.0
2019-01-28T00:21:15.341Z,91.2
2019-01-28T00:22:15.610Z,91.4
2019-01-28T00:23:15.871Z,91.5
2019-01-28T00:24:16.133Z,91.8
2019-01-28T00:25:15.413Z,91.7
2019-01-28T00:26:15.678Z,92.1
2019-01-28T00:27:15.933Z,92.0
2019-01-28T00:28:15.193Z,92.1
2019-01-28T00:29:15.470Z,92.3
2019-01-28T00:30:15.750Z,92.6
2019-01-28T00:31:15.813Z,92.6
2019-01-28T00:32:16.352Z,92.9
2019-01-28T00:33:15.613Z,93.0
2019-01-28T00:34:15.890Z,93.2
2019-01-28T00:35:16.154Z,93.5
2019-01-28T00:36:15.411Z,93.8
2019-01-28T00:37:15.672Z,93.8
2019-01-28T00:38:15.928Z,94.0
2019-01-28T00:39:15.197Z,94.0
2019-01-28T00:40:15.464Z,94.2
2019-01-28T00:41:15.509Z,94.5
2019-01-28T00:42:15.770Z,94.8
2019-01-28T00:43:16.042Z,95.1
2019-01-28T00:44:15.301Z,95.2
2019-01-28T00:45:15.576Z,95.2
2019-01-28T00:46:15.849Z,95.2
2019-01-28T00:47:16.121Z,95.4
2019-01-28T00:48:16.804Z,95.5
2019-01-28T00:49:16.068Z,95.7
2019-01-28T00:50:15.342Z,95.7
2019-01-28T00:51:15.389Z,95.8
2019-01-28T00:52:15.648Z,95.7
2019-01-28T00:53:15.916Z,95.7
2019-01-28T00:54:15.188Z,95.7
2019-01-28T00:55:15.451Z,95.4
2019-01-28T00:56:15.716Z,95.3
2019-01-28T00:57:15.985Z,95.2
2019-01-28T00:58:15.253Z,94.9
2019-01-28T00:59:15.525Z,94.8
2019-01-28T01:00:15.794Z,94.8
2019-01-28T01:01:15.847Z,94.8
2019-01-28T01:02:16.111Z,94.7
2019-01-28T01:03:15.384Z,94.4
2019-01-28T01:04:15.913Z,94.3
2019-01-28T01:05:15.176Z,93.9
2019-01-28T01:06:15.438Z,93.8
2019-01-28T01:07:15.709Z,93.7
2019-01-28T01:08:15.981Z,93.6
2019-01-28T01:09:15.261Z,93.4
2019-01-28T01:10:15.571Z,93.6
2019-01-28T01:11:15.570Z,93.7
2019-01-28T01:12:15.835Z,93.4
2019-01-28T01:13:16.098Z,93.6
2019-01-28T01:14:15.367Z,93.5
2019-01-28T01:15:15.664Z,93.5
2019-01-28T01:16:15.936Z,93.2
2019-01-28T01:17:15.206Z,93.2
2019-01-28T01:18:15.471Z,93.3
2019-01-28T01:19:15.739Z,93.0
2019-01-28T01:20:16.036Z,93.2
2019-01-28T01:21:16.072Z,93.2
2019-01-28T01:22:15.337Z,93.2
2019-01-28T01:23:15.602Z,93.6
2019-01-28T01:24:15.864Z,93.4
2019-01-28T01:25:16.136Z,93.4
2019-01-28T01:26:15.395Z,93.2
2019-01-28T01:27:15.658Z,93.0
2019-01-28T01:28:15.926Z,93.2
2019-01-28T01:29:15.191Z,93.2
2019-01-28T01:30:15.469Z,93.3
2019-01-28T01:31:15.508Z,93.5
2019-01-28T01:32:15.775Z,93.4
2019-01-28T01:33:16.360Z,93.4
2019-01-28T01:34:15.634Z,93.6
2019-01-28T01:35:15.905Z,93.5
2019-01-28T01:36:16.160Z,93.4
2019-01-28T01:37:15.426Z,93.5
2019-01-28T01:38:15.682Z,93.4
2019-01-28T01:39:15.940Z,93.4
2019-01-28T01:40:15.223Z,93.5
2019-01-28T01:41:15.257Z,93.3
2019-01-28T01:42:15.524Z,93.1
2019-01-28T01:43:15.846Z,93.2
2019-01-28T01:44:16.125Z,93.2
2019-01-28T01:45:15.379Z,93.3
2019-01-28T01:46:15.642Z,93.2
2019-01-28T01:47:15.905Z,93.3
2019-01-28T01:48:16.165Z,93.2
2019-01-28T01:49:15.426Z,92.9
2019-01-28T01:50:15.700Z,93.2
2019-01-28T01:51:16.017Z,93.3
2019-01-28T01:52:15.282Z,92.9
2019-01-28T01:53:15.543Z,92.9
2019-01-28T01:54:15.807Z,92.8
2019-01-28T01:55:16.202Z,92.4
2019-01-28T01:56:15.465Z,92.5
2019-01-28T01:57:15.738Z,92.6
2019-01-28T01:58:16.015Z,92.7
2019-01-28T01:59:15.281Z,92.2
2019-01-28T02:00:15.567Z,91.6
2019-01-28T02:01:15.599Z,91.8
2019-01-28T02:02:15.864Z,91.8
2019-01-28T02:03:16.145Z,91.8
2019-01-28T02:04:15.417Z,91.8
2019-01-28T02:05:15.687Z,91.8
2019-01-28T02:06:15.952Z,91.7
2019-01-28T02:07:15.218Z,91.6
2019-01-28T02:08:15.492Z,91.5
2019-01-28T02:09:15.762Z,91.5
2019-01-28T02:10:16.041Z,91.3
2019-01-28T02:11:16.084Z,91.2
2019-01-28T02:12:15.340Z,91.0
2019-01-28T02:13:15.614Z,90.7
2019-01-28T02:14:15.936Z,90.7
2019-01-28T02:15:15.226Z,90.6
2019-01-28T02:16:15.492Z,90.7
2019-01-28T02:17:15.824Z,90.5
2019-01-28T02:18:16.118Z,90.6
2019-01-28T02:19:15.373Z,90.7
2019-01-28T02:20:15.641Z,90.8
2019-01-28T02:21:15.677Z,90.7
2019-01-28T02:22:15.932Z,90.7
2019-01-28T02:23:15.195Z,90.4
2019-01-28T02:24:15.453Z,90.5
2019-01-28T02:25:15.714Z,90.3
2019-01-28T02:26:15.982Z,90.5
2019-01-28T02:27:15.240Z,90.3
2019-01-28T02:28:15.496Z,90.4
2019-01-28T02:29:15.764Z,90.2
2019-01-28T02:30:16.436Z,90.1
2019-01-28T02:31:16.083Z,90.1
2019-01-28T02:32:15.357Z,90.2
2019-01-28T02:33:15.631Z,89.9
2019-01-28T02:34:15.898Z,90.1
2019-01-28T02:35:16.340Z,90.2
2019-01-28T02:36:15.602Z,90.1
2019-01-28T02:37:15.864Z,89.9
2019-01-28T02:38:16.133Z,89.8
2019-01-28T02:39:15.403Z,90.2
2019-01-28T02:40:15.670Z,90.0
2019-01-28T02:41:15.722Z,89.8
2019-01-28T02:42:15.997Z,89.9
2019-01-28T02:43:15.264Z,89.8
2019-01-28T02:44:15.542Z,89.8
2019-01-28T02:45:15.878Z,89.5
2019-01-28T02:46:16.159Z,89.8
2019-01-28T02:47:15.434Z,89.8
2019-01-28T02:48:15.758Z,89.7
2019-01-28T02:49:16.019Z,89.4
2019-01-28T02:50:15.311Z,89.3
2019-01-28T02:51:15.345Z,89.5
2019-01-28T02:52:15.606Z,89.3
2019-01-28T02:53:15.866Z,89.2
2019-01-28T02:54:16.151Z,89.5
2019-01-28T02:55:15.419Z,89.2
2019-01-28T02:56:15.691Z,89.5
2019-01-28T02:57:15.967Z,89.0
2019-01-28T02:58:15.241Z,89.3
2019-01-28T02:59:15.503Z,89.0
2019-01-28T03:00:15.767Z,89.0
2019-01-28T03:01:15.818Z,89.0
2019-01-28T03:02:16.077Z,88.8
2019-01-28T03:03:15.346Z,89.0
2019-01-28T03:04:15.604Z,89.2
2019-01-28T03:05:15.871Z,89.5
2019-01-28T03:06:16.146Z,89.4
2019-01-28T03:07:15.414Z,89.5
2019-01-28T03:08:15.676Z,89.2
2019-01-28T03:09:15.942Z,89.2
2019-01-28T03:10:15.208Z,88.8
2019-01-28T03:11:15.271Z,88.7
2019-01-28T03:12:15.544Z,88.6
2019-01-28T03:13:15.814Z,88.4
2019-01-28T03:14:16.092Z,87.8
2019-01-28T03:15:15.370Z,88.1
2019-01-28T03:16:15.635Z,88.2
2019-01-28T03:17:15.910Z,88.4
2019-01-28T03:18:16.186Z,88.4
2019-01-28T03:19:15.474Z,88.3
2019-01-28T03:20:15.823Z,87.8
2019-01-28T03:21:15.796Z,87.7
2019-01-28T03:22:16.068Z,88.0
2019-01-28T03:23:15.340Z,88.0
2019-01-28T03:24:15.626Z,88.0
2019-01-28T03:25:15.906Z,88.1
2019-01-28T03:26:16.419Z,87.5
2019-01-28T03:27:15.699Z,87.5
2019-01-28T03:28:15.963Z,87.1
2019-01-28T03:29:15.230Z,87.0
2019-01-28T03:30:15.529Z,87.3
2019-01-28T03:31:15.571Z,87.7
2019-01-28T03:32:15.854Z,88.0
2019-01-28T03:33:16.147Z,88.0
2019-01-28T03:34:15.418Z,87.8
2019-01-28T03:35:15.685Z,87.9
2019-01-28T03:36:15.949Z,87.7
2019-01-28T03:37:15.224Z,87.5
2019-01-28T03:38:15.498Z,87.7
2019-01-28T03:39:15.767Z,87.1
2019-01-28T03:40:16.050Z,86.7
2019-01-28T03:41:16.370Z,87.2
2019-01-28T03:42:15.639Z,87.1
2019-01-28T03:43:14.859Z,87.3
2019-01-28T03:44:16.118Z,86.7
2019-01-28T03:45:15.399Z,86.1
2019-01-28T03:46:15.672Z,86.5
2019-01-28T03:47:15.940Z,86.4
2019-01-28T03:48:15.201Z,86.3
2019-01-28T03:49:15.475Z,86.2
2019-01-28T03:50:15.759Z,86.1
2019-01-28T03:51:15.820Z,86.1
2019-01-28T03:52:16.095Z,85.8
2019-01-28T03:53:15.360Z,85.8
2019-01-28T03:54:15.629Z,85.8
2019-01-28T03:55:15.897Z,85.5
2019-01-28T03:56:16.191Z,85.8
2019-01-28T03:57:15.472Z,85.7
2019-01-28T03:58:15.760Z,85.8
2019-01-28T03:59:16.031Z,86.1
2019-01-28T04:00:15.302Z,86.3
2019-01-28T04:01:15.373Z,86.3
2019-01-28T04:02:15.634Z,86.2
2019-01-28T04:03:15.898Z,86.1
2019-01-28T04:04:16.152Z,86.0
2019-01-28T04:05:15.428Z,86.2
2019-01-28T04:06:15.719Z,86.0
2019-01-28T04:07:15.983Z,85.7
2019-01-28T04:08:15.254Z,85.7
2019-01-28T04:09:15.520Z,85.7
2019-01-28T04:10:15.810Z,85.5
2019-01-28T04:11:15.842Z,85.8
2019-01-28T04:12:16.108Z,85.5
2019-01-28T04:13:15.373Z,85.5
2019-01-28T04:14:15.649Z,85.2
2019-01-28T04:15:16.053Z,85.7
2019-01-28T04:16:15.314Z,85.3
2019-01-28T04:17:15.639Z,85.7
2019-01-28T04:18:15.905Z,85.9
2019-01-28T04:19:16.176Z,85.7
2019-01-28T04:20:15.449Z,85.7
2019-01-28T04:21:15.513Z,85.3
2019-01-28T04:22:15.774Z,85.5
2019-01-28T04:23:16.035Z,85.7
2019-01-28T04:24:15.303Z,85.6
2019-01-28T04:25:15.570Z,85.5
2019-01-28T04:26:15.841Z,84.8
2019-01-28T04:27:16.094Z,84.8
2019-01-28T04:28:15.361Z,84.7
2019-01-28T04:29:15.626Z,84.4
2019-01-28T04:30:15.891Z,84.3
2019-01-28T04:31:15.961Z,84.6
2019-01-28T04:32:15.246Z,84.5
2019-01-28T04:33:15.507Z,84.4
2019-01-28T04:34:15.771Z,84.5
2019-01-28T04:35:16.037Z,84.7
2019-01-28T04:36:15.300Z,84.2
2019-01-28T04:37:15.560Z,84.1
2019-01-28T04:38:15.837Z,84.7
2019-01-28T04:39:16.103Z,84.7
2019-01-28T04:40:15.382Z,84.5
2019-01-28T04:41:15.396Z,84.7
2019-01-28T04:42:15.675Z,84.8
2019-01-28T04:43:15.939Z,84.8
2019-01-28T04:44:15.195Z,84.7
2019-01-28T04:45:15.465Z,84.7
2019-01-28T04:46:15.741Z,84.7
2019-01-28T04:47:16.006Z,84.8
2019-01-28T04:48:15.267Z,84.8
2019-01-28T04:49:15.532Z,84.4
2019-01-28T04:50:15.833Z,84.2
2019-01-28T04:51:15.839Z,84.0
2019-01-28T04:52:16.099Z,84.0
2019-01-28T04:53:15.378Z,84.0
2019-01-28T04:54:15.638Z,83.6
2019-01-28T04:55:15.896Z,84.0
2019-01-28T04:56:16.180Z,84.2
2019-01-28T04:57:15.441Z,84.2
2019-01-28T04:58:15.722Z,84.2
2019-01-28T04:59:15.985Z,84.3
2019-01-28T05:00:15.276Z,84.2
2019-01-28T05:01:15.312Z,84.2
2019-01-28T05:02:15.581Z,84.1
2019-01-28T05:03:15.841Z,84.2
2019-01-28T05:04:16.107Z,84.1
2019-01-28T05:05:15.392Z,84.2
2019-01-28T05:06:15.663Z,84.5
2019-01-28T05:07:15.919Z,84.2
2019-01-28T05:08:15.190Z,84.4
2019-01-28T05:09:15.451Z,84.4
2019-01-28T05:10:15.732Z,84.4
2019-01-28T05:11:15.781Z,84.2
2019-01-28T05:12:16.049Z,84.0
2019-01-28T05:13:15.313Z,84.7
2019-01-28T05:14:15.573Z,84.8
2019-01-28T05:15:15.843Z,84.5
2019-01-28T05:16:16.395Z,84.8
2019-01-28T05:17:15.663Z,84.5
2019-01-28T05:18:15.935Z,85.1
2019-01-28T05:19:15.204Z,85.0
2019-01-28T05:20:15.507Z,84.2
2019-01-28T05:21:15.525Z,84.2
2019-01-28T05:22:16.129Z,84.6
2019-01-28T05:23:15.404Z,85.1
2019-01-28T05:24:15.667Z,84.7
2019-01-28T05:25:15.957Z,84.8
2019-01-28T05:26:15.228Z,84.7
2019-01-28T05:27:15.495Z,84.4
2019-01-28T05:28:15.760Z,84.8
2019-01-28T05:29:16.032Z,84.7
2019-01-28T05:30:15.339Z,84.7
2019-01-28T05:31:15.352Z,84.7
2019-01-28T05:32:15.632Z,84.8
2019-01-28T05:33:15.896Z,85.1
2019-01-28T05:34:16.167Z,85.0
2019-01-28T05:35:15.453Z,85.0
2019-01-28T05:36:15.719Z,84.9
2019-01-28T05:37:15.994Z,85.0
2019-01-28T05:38:15.254Z,85.1
2019-01-28T05:39:15.520Z,85.0
2019-01-28T05:40:15.795Z,85.0
2019-01-28T05:41:15.831Z,85.6
2019-01-28T05:42:16.360Z,85.0
2019-01-28T05:43:15.622Z,84.9
2019-01-28T05:44:15.885Z,85.0
2019-01-28T05:45:16.156Z,84.8
2019-01-28T05:46:15.419Z,85.0
2019-01-28T05:47:15.691Z,85.2
2019-01-28T05:48:15.963Z,84.8
2019-01-28T05:49:15.227Z,84.9
2019-01-28T05:50:15.541Z,85.0
2019-01-28T05:51:15.543Z,85.5
2019-01-28T05:52:15.806Z,85.1
2019-01-28T05:53:16.071Z,85.1
2019-01-28T05:54:15.337Z,85.1
2019-01-28T05:55:15.616Z,84.9
2019-01-28T05:56:15.888Z,85.2
2019-01-28T05:57:16.484Z,85.1
2019-01-28T05:58:15.755Z,85.2
2019-01-28T05:59:16.023Z,85.2
2019-01-28T06:00:15.297Z,85.2
2019-01-28T06:01:15.709Z,85.2
2019-01-28T06:02:15.968Z,85.0
2019-01-28T06:03:15.228Z,85.6
2019-01-28T06:04:15.487Z,85.4
2019-01-28T06:05:15.768Z,85.2
2019-01-28T06:06:16.049Z,84.9
2019-01-28T06:07:15.310Z,85.2
2019-01-28T06:08:15.565Z,85.3
2019-01-28T06:09:15.838Z,85.0
2019-01-28T06:10:16.110Z,85.1
2019-01-28T06:11:16.149Z,85.5
2019-01-28T06:12:15.422Z,85.3
2019-01-28T06:13:15.704Z,85.6
2019-01-28T06:14:15.940Z,85.5
2019-01-28T06:15:15.203Z,85.4
2019-01-28T06:16:15.477Z,85.2
2019-01-28T06:17:15.748Z,85.2
2019-01-28T06:18:16.008Z,85.3
2019-01-28T06:19:15.264Z,85.4
2019-01-28T06:20:15.539Z,85.9
2019-01-28T06:21:15.585Z,85.6
2019-01-28T06:22:15.849Z,85.5
2019-01-28T06:23:16.112Z,85.3
2019-01-28T06:24:15.371Z,85.5
2019-01-28T06:25:15.648Z,85.3
2019-01-28T06:26:15.914Z,85.4
2019-01-28T06:27:15.180Z,85.8
2019-01-28T06:28:15.445Z,85.3
2019-01-28T06:29:15.705Z,85.3
2019-01-28T06:30:15.985Z,85.3
2019-01-28T06:31:16.032Z,85.2
2019-01-28T06:32:15.807Z,85.2
2019-01-28T06:33:16.068Z,85.8
2019-01-28T06:34:15.345Z,85.2
2019-01-28T06:35:15.636Z,85.2
2019-01-28T06:36:15.936Z,85.1
2019-01-28T06:37:15.207Z,85.1
2019-01-28T06:38:15.474Z,84.9
2019-01-28T06:39:15.735Z,85.0
2019-01-28T06:40:16.022Z,85.1
2019-01-28T06:41:16.049Z,84.8
2019-01-28T06:42:15.756Z,85.2
2019-01-28T06:43:16.017Z,85.4
2019-01-28T06:44:15.286Z,85.5
2019-01-28T06:45:15.560Z,85.5
2019-01-28T06:46:15.867Z,85.0
2019-01-28T06:47:16.403Z,84.9
2019-01-28T06:48:15.668Z,85.2
2019-01-28T06:49:15.935Z,85.3
2019-01-28T06:50:15.226Z,85.3
2019-01-28T06:51:15.248Z,85.5
2019-01-28T06:52:15.510Z,85.8
2019-01-28T06:53:15.777Z,86.0
2019-01-28T06:54:16.040Z,85.8
2019-01-28T06:55:15.308Z,85.8
2019-01-28T06:56:15.570Z,85.6
2019-01-28T06:57:15.833Z,85.7
2019-01-28T06:58:16.096Z,85.6
2019-01-28T06:59:15.367Z,85.8
2019-01-28T07:00:15.640Z,86.2
2019-01-28T07:01:15.685Z,85.8
2019-01-28T07:02:15.948Z,85.8
2019-01-28T07:03:15.216Z,85.9
2019-01-28T07:04:15.477Z,85.9
2019-01-28T07:05:15.742Z,86.0
2019-01-28T07:06:16.017Z,85.6
2019-01-28T07:07:15.293Z,86.0
2019-01-28T07:08:15.555Z,85.8
2019-01-28T07:09:15.838Z,85.7
2019-01-28T07:10:16.116Z,85.4
2019-01-28T07:11:16.165Z,85.6
2019-01-28T07:12:15.413Z,85.7
2019-01-28T07:13:15.672Z,85.5
2019-01-28T07:14:17.550Z,85.5
2019-01-28T07:15:15.836Z,85.6
2019-01-28T07:16:16.102Z,85.7
2019-01-28T07:17:15.373Z,85.5
2019-01-28T07:18:15.644Z,85.6
2019-01-28T07:19:15.907Z,86.0
2019-01-28T07:20:15.194Z,85.9
2019-01-28T07:21:15.220Z,85.5
2019-01-28T07:22:15.488Z,85.4
2019-01-28T07:23:15.753Z,85.3
2019-01-28T07:24:16.016Z,85.7
2019-01-28T07:25:15.283Z,85.7
2019-01-28T07:26:15.556Z,85.5
2019-01-28T07:27:15.828Z,85.5
2019-01-28T07:28:16.084Z,85.3
2019-01-28T07:29:15.349Z,85.5
2019-01-28T07:30:15.615Z,85.7
2019-01-28T07:31:15.682Z,85.8
2019-01-28T07:32:15.937Z,85.6
2019-01-28T07:33:15.198Z,85.7
2019-01-28T07:34:15.473Z,85.6
2019-01-28T07:35:15.732Z,86.0
2019-01-28T07:36:16.002Z,86.0
2019-01-28T07:37:15.272Z,86.2
2019-01-28T07:38:15.530Z,85.8
2019-01-28T07:39:15.792Z,85.8
2019-01-28T07:40:16.080Z,85.5
2019-01-28T07:41:16.115Z,85.6
2019-01-28T07:42:15.380Z,85.9
2019-01-28T07:43:15.647Z,86.0
2019-01-28T07:44:15.921Z,86.2
2019-01-28T07:45:15.190Z,86.3
2019-01-28T07:46:15.460Z,86.3
2019-01-28T07:47:15.725Z,86.1
2019-01-28T07:48:16.006Z,86.2
2019-01-28T07:49:15.280Z,86.3
2019-01-28T07:50:15.577Z,86.3
2019-01-28T07:51:15.621Z,86.3
2019-01-28T07:52:15.879Z,86.5
2019-01-28T07:53:16.157Z,86.3
2019-01-28T07:54:15.426Z,86.4
2019-01-28T07:55:15.700Z,86.6
2019-01-28T07:56:16.265Z,86.7
2019-01-28T07:57:15.534Z,86.7
2019-01-28T07:58:15.799Z,86.9
2019-01-28T07:59:16.074Z,86.8
2019-01-28T08:00:15.348Z,87.0
2019-01-28T08:01:15.405Z,86.9
2019-01-28T08:02:15.672Z,86.4
2019-01-28T08:03:15.936Z,86.7
2019-01-28T08:04:15.196Z,86.5
2019-01-28T08:05:15.460Z,86.7
2019-01-28T08:06:15.734Z,86.9
2019-01-28T08:07:16.001Z,86.5
2019-01-28T08:08:15.260Z,86.5
2019-01-28T08:09:15.521Z,86.8
2019-01-28T08:10:15.789Z,86.9
2019-01-28T08:11:15.826Z,86.9
2019-01-28T08:12:16.098Z,86.1
2019-01-28T08:13:15.360Z,86.1
2019-01-28T08:14:15.621Z,86.6
2019-01-28T08:15:15.902Z,86.4
2019-01-28T08:16:16.171Z,86.3
2019-01-28T08:17:15.441Z,86.0
2019-01-28T08:18:15.712Z,85.8
2019-01-28T08:19:15.987Z,85.8
2019-01-28T08:20:15.270Z,85.8
2019-01-28T08:21:15.295Z,86.0
2019-01-28T08:22:15.573Z,86.2
2019-01-28T08:23:15.846Z,86.0
2019-01-28T08:24:16.113Z,86.1
2019-01-28T08:25:15.377Z,85.8
2019-01-28T08:26:15.651Z,85.9
2019-01-28T08:27:15.920Z,86.1
2019-01-28T08:28:15.185Z,85.8
2019-01-28T08:29:15.456Z,85.6
2019-01-28T08:30:15.726Z,85.6
2019-01-28T08:31:15.771Z,85.7
2019-01-28T08:32:16.051Z,85.7
2019-01-28T08:33:15.324Z,85.8
2019-01-28T08:34:15.591Z,85.4
2019-01-28T08:35:15.862Z,85.8
2019-01-28T08:36:16.123Z,85.5
2019-01-28T08:37:15.390Z,85.5
2019-01-28T08:38:15.647Z,85.7
2019-01-28T08:39:15.914Z,85.2
2019-01-28T08:40:15.202Z,85.3
2019-01-28T08:41:15.239Z,85.7
2019-01-28T08:42:15.500Z,85.8
2019-01-28T08:43:15.769Z,85.2
2019-01-28T08:44:16.043Z,85.7
2019-01-28T08:45:15.311Z,85.6
2019-01-28T08:46:15.575Z,85.6
2019-01-28T08:47:15.839Z,85.5
2019-01-28T08:48:18.611Z,86.0
2019-01-28T08:49:15.872Z,85.2
2019-01-28T08:50:16.155Z,85.2
2019-01-28T08:51:15.188Z,85.5
2019-01-28T08:52:15.440Z,85.1
2019-01-28T08:53:15.704Z,85.0
2019-01-28T08:54:15.966Z,84.9
2019-01-28T08:55:15.232Z,85.2
2019-01-28T08:56:17.063Z,85.0
2019-01-28T08:57:15.391Z,85.2
2019-01-28T08:58:15.664Z,84.8
2019-01-28T08:59:15.930Z,84.7
2019-01-28T09:00:15.207Z,85.1
2019-01-28T09:01:15.255Z,85.3
2019-01-28T09:02:15.517Z,85.0
2019-01-28T09:03:15.784Z,84.7
2019-01-28T09:04:16.049Z,85.2
2019-01-28T09:05:15.314Z,85.2
2019-01-28T09:06:15.586Z,84.9
2019-01-28T09:07:15.860Z,84.5
2019-01-28T09:08:16.136Z,84.2
2019-01-28T09:09:15.400Z,84.2
2019-01-28T09:10:15.682Z,84.1
2019-01-28T09:11:15.721Z,84.0
2019-01-28T09:12:15.988Z,84.1
2019-01-28T09:13:15.248Z,84.0
2019-01-28T09:14:15.534Z,84.4
2019-01-28T09:15:15.808Z,83.7
2019-01-28T09:16:16.064Z,84.1
2019-01-28T09:17:15.335Z,83.8
2019-01-28T09:18:15.597Z,83.6
2019-01-28T09:19:15.855Z,83.8
2019-01-28T09:20:16.138Z,84.3
2019-01-28T09:21:15.165Z,84.2
2019-01-28T09:22:15.428Z,84.2
2019-01-28T09:23:15.697Z,83.7
2019-01-28T09:24:15.959Z,83.7
2019-01-28T09:25:15.227Z,84.2
2019-01-28T09:26:15.494Z,84.0
2019-01-28T09:27:15.812Z,83.8
2019-01-28T09:28:16.076Z,83.2
2019-01-28T09:29:15.336Z,83.2
2019-01-28T09:30:15.612Z,83.8
2019-01-28T09:31:15.662Z,83.5
2019-01-28T09:32:15.933Z,83.5
2019-01-28T09:33:15.196Z,83.5
2019-01-28T09:34:15.473Z,83.2
2019-01-28T09:35:15.740Z,83.2
2019-01-28T09:36:15.997Z,83.2
2019-01-28T09:37:15.268Z,83.3
2019-01-28T09:38:15.543Z,82.9
2019-01-28T09:39:15.801Z,83.0
2019-01-28T09:40:16.072Z,83.5
2019-01-28T09:41:16.112Z,83.6
2019-01-28T09:42:15.380Z,83.5
2019-01-28T09:43:15.644Z,83.8
2019-01-28T09:44:15.919Z,83.3
2019-01-28T09:45:15.182Z,83.3
2019-01-28T09:46:15.446Z,83.2
2019-01-28T09:47:15.718Z,83.3
2019-01-28T09:48:15.990Z,83.2
2019-01-28T09:49:15.246Z,83.2
2019-01-28T09:50:15.548Z,83.2
2019-01-28T09:51:15.567Z,83.3
2019-01-28T09:52:15.823Z,83.0
2019-01-28T09:53:16.085Z,83.1
2019-01-28T09:54:15.359Z,83.0
2019-01-28T09:55:15.627Z,83.3
2019-01-28T09:56:15.897Z,83.0
2019-01-28T09:57:16.160Z,83.1
2019-01-28T09:58:15.430Z,83.1
2019-01-28T09:59:15.688Z,83.0
2019-01-28T10:00:15.965Z,82.8
2019-01-28T10:01:16.019Z,82.9
2019-01-28T10:02:15.287Z,83.1
2019-01-28T10:03:15.545Z,82.8
2019-01-28T10:04:15.823Z,83.0
2019-01-28T10:05:16.156Z,82.7
2019-01-28T10:06:15.423Z,82.9
2019-01-28T10:07:15.684Z,82.8
2019-01-28T10:08:15.950Z,83.0
2019-01-28T10:09:15.226Z,83.2
2019-01-28T10:10:15.515Z,82.8
2019-01-28T10:11:15.538Z,82.9
2019-01-28T10:12:15.787Z,83.1
2019-01-28T10:13:16.051Z,83.0
2019-01-28T10:14:15.312Z,82.8
2019-01-28T10:15:15.584Z,83.0
2019-01-28T10:16:15.849Z,82.8
2019-01-28T10:17:16.120Z,82.8
2019-01-28T10:18:15.487Z,82.9
2019-01-28T10:19:15.786Z,82.4
2019-01-28T10:20:16.087Z,82.5
2019-01-28T10:21:16.102Z,82.2
2019-01-28T10:22:15.363Z,82.2
2019-01-28T10:23:15.628Z,82.6
2019-01-28T10:24:15.890Z,82.2
2019-01-28T10:25:16.156Z,83.0
2019-01-28T10:26:15.429Z,82.7
2019-01-28T10:27:15.692Z,82.4
2019-01-28T10:28:15.952Z,82.4
2019-01-28T10:29:15.225Z,82.3
2019-01-28T10:30:15.779Z,82.3
2019-01-28T10:31:15.554Z,82.8
2019-01-28T10:32:15.827Z,82.6
2019-01-28T10:33:16.096Z,82.8
2019-01-28T10:34:15.359Z,82.5
2019-01-28T10:35:15.636Z,82.8
2019-01-28T10:36:15.902Z,82.8
2019-01-28T10:37:15.175Z,83.0
2019-01-28T10:38:15.450Z,82.9
2019-01-28T10:39:15.722Z,82.9
2019-01-28T10:40:16.017Z,82.9
2019-01-28T10:41:16.057Z,83.2
2019-01-28T10:42:15.318Z,83.8
2019-01-28T10:43:15.582Z,83.2
2019-01-28T10:44:15.845Z,83.8
2019-01-28T10:45:16.123Z,83.7
2019-01-28T10:46:15.386Z,83.8
2019-01-28T10:47:15.663Z,84.0
2019-01-28T10:48:15.939Z,84.4
2019-01-28T10:49:15.201Z,84.3
2019-01-28T10:50:15.471Z,84.6
2019-01-28T10:51:15.523Z,84.8
2019-01-28T10:52:15.784Z,85.4
2019-01-28T10:53:16.047Z,85.1
2019-01-28T10:54:15.308Z,85.0
2019-01-28T10:55:15.570Z,84.4
2019-01-28T10:56:15.833Z,84.7
2019-01-28T10:57:16.107Z,84.3
2019-01-28T10:58:15.372Z,84.3
2019-01-28T10:59:15.641Z,84.0
2019-01-28T11:00:15.925Z,84.5
2019-01-28T11:01:15.968Z,84.2
2019-01-28T11:02:15.223Z,83.9
2019-01-28T11:03:15.481Z,83.3
2019-01-28T11:04:15.741Z,83.3
2019-01-28T11:05:15.999Z,83.1
2019-01-28T11:06:15.271Z,83.3
2019-01-28T11:07:15.545Z,83.6
2019-01-28T11:08:15.818Z,83.6
2019-01-28T11:09:16.092Z,83.2
2019-01-28T11:10:15.449Z,83.2
2019-01-28T11:11:15.521Z,83.4
2019-01-28T11:12:15.889Z,83.8
2019-01-28T11:13:16.344Z,83.6
2019-01-28T11:14:15.735Z,83.3
2019-01-28T11:15:16.129Z,83.7
2019-01-28T11:16:15.487Z,83.7
2019-01-28T11:17:15.876Z,83.5
2019-01-28T11:18:16.269Z,83.4
2019-01-28T11:19:15.777Z,83.7
2019-01-28T11:20:16.073Z,83.6
2019-01-28T11:21:16.150Z,83.7
2019-01-28T11:22:15.658Z,83.9
2019-01-28T11:23:16.104Z,83.7
2019-01-28T11:24:15.586Z,83.8
2019-01-28T11:25:15.982Z,84.2
2019-01-28T11:26:15.362Z,83.6
2019-01-28T11:27:15.802Z,82.9
2019-01-28T11:28:16.233Z,82.9
2019-01-28T11:29:15.630Z,83.1
2019-01-28T11:30:15.922Z,83.2
2019-01-28T11:31:16.209Z,83.2
2019-01-28T11:32:15.501Z,83.2
2019-01-28T11:33:15.822Z,83.0
2019-01-28T11:34:16.083Z,82.7
2019-01-28T11:35:15.589Z,82.2
2019-01-28T11:36:16.010Z,82.1
2019-01-28T11:37:15.365Z,81.9
2019-01-28T11:38:15.786Z,81.8
2019-01-28T11:39:16.250Z,81.5
2019-01-28T11:40:15.608Z,81.8
2019-01-28T11:41:15.886Z,81.1
2019-01-28T11:42:16.193Z,81.2
2019-01-28T11:43:15.683Z,81.3
2019-01-28T11:44:16.116Z,80.5
2019-01-28T11:45:15.408Z,80.2
2019-01-28T11:46:15.789Z,80.4
2019-01-28T11:47:16.174Z,80.0
2019-01-28T11:48:15.645Z,79.8
2019-01-28T11:49:16.146Z,80.3
2019-01-28T11:50:15.439Z,79.9
2019-01-28T11:51:15.471Z,79.8
2019-01-28T11:52:15.734Z,80.4
2019-01-28T11:53:15.999Z,80.0
2019-01-28T11:54:15.248Z,80.0
2019-01-28T11:55:15.521Z,80.0
2019-01-28T11:56:15.792Z,79.9
2019-01-28T11:57:16.056Z,80.3
2019-01-28T11:58:15.318Z,80.6
2019-01-28T11:59:15.576Z,80.4
2019-01-28T12:00:15.855Z,80.7
2019-01-28T12:01:15.919Z,80.5
2019-01-28T12:02:15.184Z,80.3
2019-01-28T12:03:15.461Z,80.4
2019-01-28T12:04:15.732Z,80.6
2019-01-28T12:05:16.000Z,80.7
2019-01-28T12:06:15.284Z,80.2
2019-01-28T12:07:15.549Z,80.9
2019-01-28T12:08:15.811Z,81.2
2019-01-28T12:09:16.070Z,80.7
2019-01-28T12:10:15.351Z,80.5
2019-01-28T12:11:15.396Z,80.5
2019-01-28T12:12:15.655Z,80.8
2019-01-28T12:13:15.914Z,80.7
2019-01-28T12:14:15.187Z,80.8
2019-01-28T12:15:15.453Z,81.2
2019-01-28T12:16:15.713Z,81.2
2019-01-28T12:17:15.974Z,81.3
2019-01-28T12:18:15.245Z,81.3
2019-01-28T12:19:15.511Z,81.3
2019-01-28T12:20:15.778Z,81.3
2019-01-28T12:21:15.943Z,81.8
2019-01-28T12:22:15.196Z,81.8
2019-01-28T12:23:15.467Z,81.4
2019-01-28T12:24:15.736Z,81.5
2019-01-28T12:25:15.998Z,81.6
2019-01-28T12:26:15.259Z,81.4
2019-01-28T12:27:15.530Z,81.5
2019-01-28T12:28:15.802Z,81.4
2019-01-28T12:29:16.138Z,81.5
2019-01-28T12:30:15.412Z,81.3
2019-01-28T12:31:15.458Z,82.0
2019-01-28T12:32:15.735Z,81.3
2019-01-28T12:33:16.001Z,81.4
2019-01-28T12:34:15.645Z,81.7
2019-01-28T12:35:17.625Z,81.3
2019-01-28T12:36:15.892Z,81.8
2019-01-28T12:37:16.174Z,81.6
2019-01-28T12:38:15.436Z,81.6
2019-01-28T12:39:15.701Z,81.8
2019-01-28T12:40:15.975Z,81.8
2019-01-28T12:41:17.811Z,82.0
2019-01-28T12:42:16.080Z,82.0
2019-01-28T12:43:15.348Z,82.1
2019-01-28T12:44:15.633Z,82.0
2019-01-28T12:45:15.900Z,82.3
2019-01-28T12:46:16.173Z,82.3
2019-01-28T12:47:15.438Z,82.2
2019-01-28T12:48:15.709Z,82.7
2019-01-28T12:49:22.337Z,82.6
2019-01-28T12:50:15.642Z,83.2
2019-01-28T12:51:15.694Z,83.3
2019-01-28T12:52:15.979Z,83.4
2019-01-28T12:53:15.251Z,83.6
2019-01-28T12:54:15.548Z,84.4
2019-01-28T12:55:15.824Z,84.3
2019-01-28T12:56:16.087Z,84.8
2019-01-28T12:57:15.356Z,84.8
2019-01-28T12:58:15.621Z,85.3
2019-01-28T12:59:15.895Z,85.6
2019-01-28T13:00:15.186Z,85.9
2019-01-28T13:01:15.223Z,86.1
2019-01-28T13:02:15.492Z,86.3
2019-01-28T13:03:15.756Z,86.5
2019-01-28T13:04:16.027Z,87.2
2019-01-28T13:05:15.300Z,87.0
2019-01-28T13:06:15.558Z,87.2
2019-01-28T13:07:15.826Z,87.7
2019-01-28T13:08:16.108Z,87.3
2019-01-28T13:09:15.376Z,87.4
2019-01-28T13:10:15.643Z,87.5
2019-01-28T13:11:15.720Z,86.9
2019-01-28T13:12:15.996Z,87.0
2019-01-28T13:13:15.259Z,87.2
2019-01-28T13:14:15.525Z,87.0
2019-01-28T13:15:15.805Z,87.2
2019-01-28T13:16:16.079Z,87.1
2019-01-28T13:17:15.343Z,87.2
2019-01-28T13:18:15.601Z,87.2